sensor_id;sensor_type;location;lat;lon;timestamp;P1;durP1;ratioP1;P2;durP2;ratioP2
6117;SDS011;3089;48.202;11.510;2024-02-21T00:01:02;9.10;;;1.37;;
6117;SDS011;3089;48.202;11.510;2024-02-21T00:03:31;5.50;;;1.50;;
6117;SDS011;3089;48.202;11.510;2024-02-21T00:05:59;3.40;;;1.27;;
6117;SDS011;3089;48.202;11.510;2024-02-21T00:08:27;3.97;;;1.40;;
6117;SDS011;3089;48.202;11.510;2024-02-21T00:10:55;4.70;;;1.60;;
6117;SDS011;3089;48.202;11.510;2024-02-21T00:13:25;4.90;;;1.40;;
6117;SDS011;3089;48.202;11.510;2024-02-21T00:15:53;7.23;;;1.63;;
6117;SDS011;3089;48.202;11.510;2024-02-21T00:18:21;4.37;;;1.50;;
6117;SDS011;3089;48.202;11.510;2024-02-21T00:20:55;6.93;;;1.93;;
6117;SDS011;3089;48.202;11.510;2024-02-21T00:23:23;4.10;;;2.23;;
6117;SDS011;3089;48.202;11.510;2024-02-21T00:25:51;3.50;;;1.33;;
6117;SDS011;3089;48.202;11.510;2024-02-21T00:28:19;9.30;;;1.77;;
6117;SDS011;3089;48.202;11.510;2024-02-21T00:30:49;3.00;;;1.27;;
6117;SDS011;3089;48.202;11.510;2024-02-21T00:33:19;5.53;;;1.70;;
6117;SDS011;3089;48.202;11.510;2024-02-21T00:35:47;10.40;;;2.13;;
6117;SDS011;3089;48.202;11.510;2024-02-21T00:38:15;7.43;;;1.93;;
6117;SDS011;3089;48.202;11.510;2024-02-21T00:40:43;5.20;;;1.67;;
6117;SDS011;3089;48.202;11.510;2024-02-21T00:43:11;6.63;;;1.43;;
6117;SDS011;3089;48.202;11.510;2024-02-21T00:45:39;4.00;;;1.20;;
6117;SDS011;3089;48.202;11.510;2024-02-21T00:48:09;3.80;;;1.43;;
6117;SDS011;3089;48.202;11.510;2024-02-21T00:50:37;4.20;;;1.47;;
6117;SDS011;3089;48.202;11.510;2024-02-21T00:53:05;4.07;;;1.30;;
6117;SDS011;3089;48.202;11.510;2024-02-21T00:55:33;12.77;;;1.63;;
6117;SDS011;3089;48.202;11.510;2024-02-21T00:58:02;5.53;;;1.63;;
6117;SDS011;3089;48.202;11.510;2024-02-21T01:00:30;5.70;;;2.13;;
6117;SDS011;3089;48.202;11.510;2024-02-21T01:02:58;6.20;;;1.50;;
6117;SDS011;3089;48.202;11.510;2024-02-21T01:05:27;4.10;;;1.40;;
6117;SDS011;3089;48.202;11.510;2024-02-21T01:07:55;7.50;;;1.93;;
6117;SDS011;3089;48.202;11.510;2024-02-21T01:10:23;5.50;;;1.20;;
6117;SDS011;3089;48.202;11.510;2024-02-21T01:12:51;2.70;;;1.00;;
6117;SDS011;3089;48.202;11.510;2024-02-21T01:15:19;7.30;;;1.63;;
6117;SDS011;3089;48.202;11.510;2024-02-21T01:17:47;5.60;;;1.63;;
6117;SDS011;3089;48.202;11.510;2024-02-21T01:20:16;7.30;;;1.60;;
6117;SDS011;3089;48.202;11.510;2024-02-21T01:22:45;10.30;;;1.10;;
6117;SDS011;3089;48.202;11.510;2024-02-21T01:25:13;7.53;;;1.53;;
6117;SDS011;3089;48.202;11.510;2024-02-21T01:27:42;3.90;;;1.30;;
6117;SDS011;3089;48.202;11.510;2024-02-21T01:30:10;5.33;;;1.50;;
6117;SDS011;3089;48.202;11.510;2024-02-21T01:32:39;5.80;;;1.47;;
6117;SDS011;3089;48.202;11.510;2024-02-21T01:35:07;7.33;;;1.67;;
6117;SDS011;3089;48.202;11.510;2024-02-21T01:37:36;8.53;;;1.53;;
6117;SDS011;3089;48.202;11.510;2024-02-21T01:40:06;5.27;;;1.77;;
6117;SDS011;3089;48.202;11.510;2024-02-21T01:42:37;4.70;;;1.63;;
6117;SDS011;3089;48.202;11.510;2024-02-21T01:45:06;6.83;;;1.77;;
6117;SDS011;3089;48.202;11.510;2024-02-21T01:47:34;5.67;;;1.30;;
6117;SDS011;3089;48.202;11.510;2024-02-21T01:50:02;3.33;;;1.40;;
6117;SDS011;3089;48.202;11.510;2024-02-21T01:52:31;3.07;;;1.13;;
6117;SDS011;3089;48.202;11.510;2024-02-21T01:55:02;4.67;;;1.57;;
6117;SDS011;3089;48.202;11.510;2024-02-21T01:57:32;3.93;;;1.43;;
6117;SDS011;3089;48.202;11.510;2024-02-21T02:00:00;11.07;;;1.77;;
6117;SDS011;3089;48.202;11.510;2024-02-21T02:02:28;8.20;;;1.40;;
6117;SDS011;3089;48.202;11.510;2024-02-21T02:04:57;4.30;;;1.30;;
6117;SDS011;3089;48.202;11.510;2024-02-21T02:07:25;4.43;;;1.20;;
6117;SDS011;3089;48.202;11.510;2024-02-21T02:09:53;6.57;;;1.20;;
6117;SDS011;3089;48.202;11.510;2024-02-21T02:12:21;7.27;;;2.17;;
6117;SDS011;3089;48.202;11.510;2024-02-21T02:14:58;5.77;;;1.87;;
6117;SDS011;3089;48.202;11.510;2024-02-21T02:17:26;3.37;;;1.37;;
6117;SDS011;3089;48.202;11.510;2024-02-21T02:19:54;5.23;;;2.10;;
6117;SDS011;3089;48.202;11.510;2024-02-21T02:22:23;4.90;;;1.47;;
6117;SDS011;3089;48.202;11.510;2024-02-21T02:24:57;4.27;;;1.50;;
6117;SDS011;3089;48.202;11.510;2024-02-21T02:27:25;3.67;;;1.40;;
6117;SDS011;3089;48.202;11.510;2024-02-21T02:29:53;4.77;;;1.37;;
6117;SDS011;3089;48.202;11.510;2024-02-21T02:32:21;8.43;;;1.50;;
6117;SDS011;3089;48.202;11.510;2024-02-21T02:34:49;7.57;;;1.83;;
6117;SDS011;3089;48.202;11.510;2024-02-21T02:37:17;4.30;;;1.63;;
6117;SDS011;3089;48.202;11.510;2024-02-21T02:39:45;7.23;;;1.80;;
6117;SDS011;3089;48.202;11.510;2024-02-21T02:42:15;4.30;;;1.30;;
6117;SDS011;3089;48.202;11.510;2024-02-21T02:44:43;3.17;;;1.10;;
6117;SDS011;3089;48.202;11.510;2024-02-21T02:47:11;3.67;;;0.93;;
6117;SDS011;3089;48.202;11.510;2024-02-21T02:49:39;7.30;;;1.47;;
6117;SDS011;3089;48.202;11.510;2024-02-21T02:52:07;3.23;;;1.00;;
6117;SDS011;3089;48.202;11.510;2024-02-21T02:54:34;5.20;;;1.43;;
6117;SDS011;3089;48.202;11.510;2024-02-21T02:57:02;3.27;;;1.13;;
6117;SDS011;3089;48.202;11.510;2024-02-21T02:59:33;2.73;;;1.10;;
6117;SDS011;3089;48.202;11.510;2024-02-21T03:02:01;4.57;;;1.80;;
6117;SDS011;3089;48.202;11.510;2024-02-21T03:04:29;4.87;;;1.53;;
6117;SDS011;3089;48.202;11.510;2024-02-21T03:06:57;6.37;;;1.40;;
6117;SDS011;3089;48.202;11.510;2024-02-21T03:09:25;2.30;;;0.90;;
6117;SDS011;3089;48.202;11.510;2024-02-21T03:11:54;5.13;;;1.73;;
6117;SDS011;3089;48.202;11.510;2024-02-21T03:14:28;4.03;;;1.03;;
6117;SDS011;3089;48.202;11.510;2024-02-21T03:16:57;6.20;;;1.40;;
6117;SDS011;3089;48.202;11.510;2024-02-21T03:19:26;5.20;;;1.30;;
6117;SDS011;3089;48.202;11.510;2024-02-21T03:21:54;3.20;;;1.00;;
6117;SDS011;3089;48.202;11.510;2024-02-21T03:24:22;3.10;;;1.10;;
6117;SDS011;3089;48.202;11.510;2024-02-21T03:26:51;6.07;;;1.40;;
6117;SDS011;3089;48.202;11.510;2024-02-21T03:29:19;3.50;;;1.63;;
6117;SDS011;3089;48.202;11.510;2024-02-21T03:31:46;4.87;;;1.07;;
6117;SDS011;3089;48.202;11.510;2024-02-21T03:34:16;7.47;;;1.23;;
6117;SDS011;3089;48.202;11.510;2024-02-21T03:36:44;5.70;;;1.50;;
6117;SDS011;3089;48.202;11.510;2024-02-21T03:39:12;3.20;;;1.10;;
6117;SDS011;3089;48.202;11.510;2024-02-21T03:41:40;3.30;;;1.30;;
6117;SDS011;3089;48.202;11.510;2024-02-21T03:44:08;3.50;;;1.33;;
6117;SDS011;3089;48.202;11.510;2024-02-21T03:46:36;3.70;;;1.20;;
6117;SDS011;3089;48.202;11.510;2024-02-21T03:49:04;2.67;;;0.90;;
6117;SDS011;3089;48.202;11.510;2024-02-21T03:51:33;3.63;;;1.30;;
6117;SDS011;3089;48.202;11.510;2024-02-21T03:54:01;9.03;;;1.20;;
6117;SDS011;3089;48.202;11.510;2024-02-21T03:56:29;4.43;;;1.20;;
6117;SDS011;3089;48.202;11.510;2024-02-21T03:58:57;3.23;;;1.40;;
6117;SDS011;3089;48.202;11.510;2024-02-21T04:01:25;3.83;;;0.93;;
6117;SDS011;3089;48.202;11.510;2024-02-21T04:03:53;3.23;;;0.93;;
6117;SDS011;3089;48.202;11.510;2024-02-21T04:06:22;5.40;;;1.23;;
6117;SDS011;3089;48.202;11.510;2024-02-21T04:08:51;5.10;;;1.30;;
6117;SDS011;3089;48.202;11.510;2024-02-21T04:11:19;2.87;;;1.00;;
6117;SDS011;3089;48.202;11.510;2024-02-21T04:13:47;4.47;;;1.40;;
6117;SDS011;3089;48.202;11.510;2024-02-21T04:16:16;3.77;;;1.30;;
6117;SDS011;3089;48.202;11.510;2024-02-21T04:18:44;4.63;;;1.27;;
6117;SDS011;3089;48.202;11.510;2024-02-21T04:21:14;5.20;;;1.10;;
6117;SDS011;3089;48.202;11.510;2024-02-21T04:23:43;5.00;;;1.20;;
6117;SDS011;3089;48.202;11.510;2024-02-21T04:26:12;3.47;;;1.33;;
6117;SDS011;3089;48.202;11.510;2024-02-21T04:28:40;3.83;;;0.87;;
6117;SDS011;3089;48.202;11.510;2024-02-21T04:31:10;3.27;;;0.93;;
6117;SDS011;3089;48.202;11.510;2024-02-21T04:33:38;6.03;;;1.00;;
6117;SDS011;3089;48.202;11.510;2024-02-21T04:36:06;2.83;;;1.10;;
6117;SDS011;3089;48.202;11.510;2024-02-21T04:38:35;3.67;;;1.20;;
6117;SDS011;3089;48.202;11.510;2024-02-21T04:41:05;3.50;;;0.90;;
6117;SDS011;3089;48.202;11.510;2024-02-21T04:43:34;2.60;;;1.10;;
6117;SDS011;3089;48.202;11.510;2024-02-21T04:46:02;3.70;;;1.23;;
6117;SDS011;3089;48.202;11.510;2024-02-21T04:48:31;3.90;;;1.57;;
6117;SDS011;3089;48.202;11.510;2024-02-21T04:50:59;5.13;;;1.40;;
6117;SDS011;3089;48.202;11.510;2024-02-21T04:53:27;4.63;;;1.10;;
6117;SDS011;3089;48.202;11.510;2024-02-21T04:55:55;2.60;;;0.90;;
6117;SDS011;3089;48.202;11.510;2024-02-21T04:58:23;4.57;;;1.40;;
6117;SDS011;3089;48.202;11.510;2024-02-21T05:00:53;3.17;;;1.00;;
6117;SDS011;3089;48.202;11.510;2024-02-21T05:03:22;2.70;;;0.97;;
6117;SDS011;3089;48.202;11.510;2024-02-21T05:05:50;2.83;;;0.83;;
6117;SDS011;3089;48.202;11.510;2024-02-21T05:08:18;4.43;;;1.20;;
6117;SDS011;3089;48.202;11.510;2024-02-21T05:10:46;5.50;;;1.30;;
6117;SDS011;3089;48.202;11.510;2024-02-21T05:13:14;3.63;;;1.10;;
6117;SDS011;3089;48.202;11.510;2024-02-21T05:15:42;3.50;;;1.30;;
6117;SDS011;3089;48.202;11.510;2024-02-21T05:18:11;4.00;;;1.40;;
6117;SDS011;3089;48.202;11.510;2024-02-21T05:20:39;6.83;;;1.57;;
6117;SDS011;3089;48.202;11.510;2024-02-21T05:23:07;8.27;;;1.00;;
6117;SDS011;3089;48.202;11.510;2024-02-21T05:25:35;3.17;;;0.80;;
6117;SDS011;3089;48.202;11.510;2024-02-21T05:28:03;2.93;;;0.90;;
6117;SDS011;3089;48.202;11.510;2024-02-21T05:30:32;4.73;;;1.00;;
6117;SDS011;3089;48.202;11.510;2024-02-21T05:33:03;3.70;;;0.90;;
6117;SDS011;3089;48.202;11.510;2024-02-21T05:35:34;3.87;;;0.97;;
6117;SDS011;3089;48.202;11.510;2024-02-21T05:38:03;7.00;;;1.07;;
6117;SDS011;3089;48.202;11.510;2024-02-21T05:40:33;3.33;;;0.77;;
6117;SDS011;3089;48.202;11.510;2024-02-21T05:43:01;4.83;;;0.90;;
6117;SDS011;3089;48.202;11.510;2024-02-21T05:45:28;2.37;;;0.73;;
6117;SDS011;3089;48.202;11.510;2024-02-21T05:47:56;3.17;;;0.90;;
6117;SDS011;3089;48.202;11.510;2024-02-21T05:50:25;2.77;;;0.90;;
6117;SDS011;3089;48.202;11.510;2024-02-21T05:52:54;4.33;;;0.80;;
6117;SDS011;3089;48.202;11.510;2024-02-21T05:55:23;6.50;;;1.10;;
6117;SDS011;3089;48.202;11.510;2024-02-21T05:57:53;7.83;;;0.83;;
6117;SDS011;3089;48.202;11.510;2024-02-21T06:00:21;4.03;;;1.00;;
6117;SDS011;3089;48.202;11.510;2024-02-21T06:02:49;6.40;;;1.03;;
6117;SDS011;3089;48.202;11.510;2024-02-21T06:05:17;3.03;;;0.80;;
6117;SDS011;3089;48.202;11.510;2024-02-21T06:07:45;4.20;;;1.40;;
6117;SDS011;3089;48.202;11.510;2024-02-21T06:10:15;3.30;;;1.10;;
6117;SDS011;3089;48.202;11.510;2024-02-21T06:12:43;2.03;;;0.80;;
6117;SDS011;3089;48.202;11.510;2024-02-21T06:15:11;4.93;;;1.10;;
6117;SDS011;3089;48.202;11.510;2024-02-21T06:17:39;8.43;;;0.70;;
6117;SDS011;3089;48.202;11.510;2024-02-21T06:20:08;2.33;;;0.70;;
6117;SDS011;3089;48.202;11.510;2024-02-21T06:22:36;4.03;;;1.10;;
6117;SDS011;3089;48.202;11.510;2024-02-21T06:25:04;2.80;;;0.80;;
6117;SDS011;3089;48.202;11.510;2024-02-21T06:27:34;2.73;;;0.80;;
6117;SDS011;3089;48.202;11.510;2024-02-21T06:30:02;2.43;;;0.60;;
6117;SDS011;3089;48.202;11.510;2024-02-21T06:32:30;2.23;;;0.70;;
6117;SDS011;3089;48.202;11.510;2024-02-21T06:34:58;3.40;;;0.70;;
6117;SDS011;3089;48.202;11.510;2024-02-21T06:37:28;3.70;;;1.20;;
6117;SDS011;3089;48.202;11.510;2024-02-21T06:39:56;3.00;;;0.90;;
6117;SDS011;3089;48.202;11.510;2024-02-21T06:42:24;3.47;;;0.80;;
6117;SDS011;3089;48.202;11.510;2024-02-21T06:44:54;2.13;;;0.60;;
6117;SDS011;3089;48.202;11.510;2024-02-21T06:47:22;2.47;;;0.87;;
6117;SDS011;3089;48.202;11.510;2024-02-21T06:49:50;3.83;;;0.60;;
6117;SDS011;3089;48.202;11.510;2024-02-21T06:52:19;2.37;;;0.70;;
6117;SDS011;3089;48.202;11.510;2024-02-21T06:54:47;2.47;;;0.87;;
6117;SDS011;3089;48.202;11.510;2024-02-21T06:57:15;7.70;;;0.70;;
6117;SDS011;3089;48.202;11.510;2024-02-21T06:59:43;4.53;;;1.10;;
6117;SDS011;3089;48.202;11.510;2024-02-21T07:02:12;4.60;;;0.70;;
6117;SDS011;3089;48.202;11.510;2024-02-21T07:04:41;3.27;;;0.60;;
6117;SDS011;3089;48.202;11.510;2024-02-21T07:07:10;3.67;;;0.90;;
6117;SDS011;3089;48.202;11.510;2024-02-21T07:09:38;3.83;;;1.20;;
6117;SDS011;3089;48.202;11.510;2024-02-21T07:12:07;5.10;;;0.70;;
6117;SDS011;3089;48.202;11.510;2024-02-21T07:14:35;9.70;;;1.00;;
6117;SDS011;3089;48.202;11.510;2024-02-21T07:17:03;2.73;;;1.00;;
6117;SDS011;3089;48.202;11.510;2024-02-21T07:19:33;5.70;;;1.00;;
6117;SDS011;3089;48.202;11.510;2024-02-21T07:22:01;2.20;;;0.80;;
6117;SDS011;3089;48.202;11.510;2024-02-21T07:24:30;6.30;;;1.40;;
6117;SDS011;3089;48.202;11.510;2024-02-21T07:26:58;2.50;;;0.80;;
6117;SDS011;3089;48.202;11.510;2024-02-21T07:29:30;3.93;;;1.13;;
6117;SDS011;3089;48.202;11.510;2024-02-21T07:31:58;4.90;;;1.03;;
6117;SDS011;3089;48.202;11.510;2024-02-21T07:34:26;12.43;;;0.93;;
6117;SDS011;3089;48.202;11.510;2024-02-21T07:36:56;4.77;;;1.10;;
6117;SDS011;3089;48.202;11.510;2024-02-21T07:39:24;2.10;;;0.60;;
6117;SDS011;3089;48.202;11.510;2024-02-21T07:41:52;2.90;;;0.93;;
6117;SDS011;3089;48.202;11.510;2024-02-21T07:44:20;2.90;;;1.00;;
6117;SDS011;3089;48.202;11.510;2024-02-21T07:46:48;3.47;;;0.80;;
6117;SDS011;3089;48.202;11.510;2024-02-21T07:49:16;2.37;;;0.73;;
6117;SDS011;3089;48.202;11.510;2024-02-21T07:51:44;3.30;;;1.10;;
6117;SDS011;3089;48.202;11.510;2024-02-21T07:54:14;2.27;;;0.70;;
6117;SDS011;3089;48.202;11.510;2024-02-21T07:56:43;2.47;;;0.60;;
6117;SDS011;3089;48.202;11.510;2024-02-21T07:59:11;4.77;;;0.70;;
6117;SDS011;3089;48.202;11.510;2024-02-21T08:01:40;1.97;;;0.60;;
6117;SDS011;3089;48.202;11.510;2024-02-21T08:04:08;3.47;;;0.80;;
6117;SDS011;3089;48.202;11.510;2024-02-21T08:06:36;6.77;;;0.90;;
6117;SDS011;3089;48.202;11.510;2024-02-21T08:09:04;2.60;;;0.70;;
6117;SDS011;3089;48.202;11.510;2024-02-21T08:11:34;2.87;;;0.70;;
6117;SDS011;3089;48.202;11.510;2024-02-21T08:14:02;2.33;;;0.70;;
6117;SDS011;3089;48.202;11.510;2024-02-21T08:16:30;2.07;;;0.67;;
6117;SDS011;3089;48.202;11.510;2024-02-21T08:18:58;2.57;;;0.90;;
6117;SDS011;3089;48.202;11.510;2024-02-21T08:21:28;3.27;;;0.90;;
6117;SDS011;3089;48.202;11.510;2024-02-21T08:23:56;3.33;;;0.83;;
6117;SDS011;3089;48.202;11.510;2024-02-21T08:26:24;2.60;;;1.00;;
6117;SDS011;3089;48.202;11.510;2024-02-21T08:28:55;9.33;;;0.90;;
6117;SDS011;3089;48.202;11.510;2024-02-21T08:31:26;2.03;;;0.60;;
6117;SDS011;3089;48.202;11.510;2024-02-21T08:33:57;3.50;;;0.70;;
6117;SDS011;3089;48.202;11.510;2024-02-21T08:36:29;6.13;;;1.10;;
6117;SDS011;3089;48.202;11.510;2024-02-21T08:38:57;4.17;;;0.97;;
6117;SDS011;3089;48.202;11.510;2024-02-21T08:41:25;2.40;;;0.70;;
6117;SDS011;3089;48.202;11.510;2024-02-21T08:44:14;2.93;;;0.80;;
6117;SDS011;3089;48.202;11.510;2024-02-21T08:46:42;2.73;;;0.87;;
6117;SDS011;3089;48.202;11.510;2024-02-21T08:49:11;4.80;;;0.83;;
6117;SDS011;3089;48.202;11.510;2024-02-21T08:51:40;2.83;;;0.70;;
6117;SDS011;3089;48.202;11.510;2024-02-21T08:54:09;3.03;;;0.83;;
6117;SDS011;3089;48.202;11.510;2024-02-21T08:56:37;2.10;;;0.70;;
6117;SDS011;3089;48.202;11.510;2024-02-21T08:59:05;2.87;;;0.70;;
6117;SDS011;3089;48.202;11.510;2024-02-21T09:01:34;2.20;;;0.70;;
6117;SDS011;3089;48.202;11.510;2024-02-21T09:04:03;2.50;;;0.70;;
6117;SDS011;3089;48.202;11.510;2024-02-21T09:06:32;2.80;;;0.93;;
6117;SDS011;3089;48.202;11.510;2024-02-21T09:09:03;2.07;;;0.67;;
6117;SDS011;3089;48.202;11.510;2024-02-21T09:11:31;2.90;;;0.80;;
6117;SDS011;3089;48.202;11.510;2024-02-21T09:13:59;3.37;;;1.23;;
6117;SDS011;3089;48.202;11.510;2024-02-21T09:16:30;2.67;;;0.80;;
6117;SDS011;3089;48.202;11.510;2024-02-21T09:19:00;3.27;;;1.10;;
6117;SDS011;3089;48.202;11.510;2024-02-21T09:21:28;4.83;;;0.70;;
6117;SDS011;3089;48.202;11.510;2024-02-21T09:23:56;3.23;;;0.60;;
6117;SDS011;3089;48.202;11.510;2024-02-21T09:26:26;2.50;;;0.70;;
6117;SDS011;3089;48.202;11.510;2024-02-21T09:28:54;2.87;;;0.80;;
6117;SDS011;3089;48.202;11.510;2024-02-21T09:31:22;2.57;;;0.83;;
6117;SDS011;3089;48.202;11.510;2024-02-21T09:33:50;2.10;;;0.60;;
6117;SDS011;3089;48.202;11.510;2024-02-21T09:36:19;5.87;;;0.87;;
6117;SDS011;3089;48.202;11.510;2024-02-21T09:38:48;3.97;;;1.50;;
6117;SDS011;3089;48.202;11.510;2024-02-21T09:41:16;11.40;;;1.13;;
6117;SDS011;3089;48.202;11.510;2024-02-21T09:43:51;12.00;;;0.80;;
6117;SDS011;3089;48.202;11.510;2024-02-21T09:46:21;4.33;;;0.90;;
6117;SDS011;3089;48.202;11.510;2024-02-21T09:48:58;4.73;;;0.80;;
6117;SDS011;3089;48.202;11.510;2024-02-21T09:51:38;2.50;;;0.83;;
6117;SDS011;3089;48.202;11.510;2024-02-21T09:54:09;2.27;;;0.70;;
6117;SDS011;3089;48.202;11.510;2024-02-21T09:56:44;5.80;;;1.00;;
6117;SDS011;3089;48.202;11.510;2024-02-21T09:59:13;2.93;;;0.90;;
6117;SDS011;3089;48.202;11.510;2024-02-21T10:01:42;3.83;;;0.83;;
6117;SDS011;3089;48.202;11.510;2024-02-21T10:04:13;3.00;;;0.80;;
6117;SDS011;3089;48.202;11.510;2024-02-21T10:06:43;3.43;;;1.00;;
6117;SDS011;3089;48.202;11.510;2024-02-21T10:09:19;6.00;;;1.50;;
6117;SDS011;3089;48.202;11.510;2024-02-21T10:11:50;3.80;;;1.20;;
6117;SDS011;3089;48.202;11.510;2024-02-21T10:14:18;5.93;;;1.50;;
6117;SDS011;3089;48.202;11.510;2024-02-21T10:16:46;6.77;;;1.40;;
6117;SDS011;3089;48.202;11.510;2024-02-21T10:19:16;3.83;;;1.17;;
6117;SDS011;3089;48.202;11.510;2024-02-21T10:21:58;2.60;;;0.90;;
6117;SDS011;3089;48.202;11.510;2024-02-21T10:24:27;4.13;;;1.30;;
6117;SDS011;3089;48.202;11.510;2024-02-21T10:26:59;3.90;;;1.00;;
6117;SDS011;3089;48.202;11.510;2024-02-21T10:29:30;4.60;;;1.13;;
6117;SDS011;3089;48.202;11.510;2024-02-21T10:32:07;4.43;;;1.10;;
6117;SDS011;3089;48.202;11.510;2024-02-21T10:34:37;3.70;;;0.93;;
6117;SDS011;3089;48.202;11.510;2024-02-21T10:37:08;3.40;;;0.90;;
6117;SDS011;3089;48.202;11.510;2024-02-21T10:39:38;2.30;;;0.70;;
6117;SDS011;3089;48.202;11.510;2024-02-21T10:42:06;2.40;;;0.97;;
6117;SDS011;3089;48.202;11.510;2024-02-21T10:44:38;2.87;;;0.67;;
6117;SDS011;3089;48.202;11.510;2024-02-21T10:47:09;2.07;;;0.60;;
6117;SDS011;3089;48.202;11.510;2024-02-21T10:49:39;4.07;;;1.27;;
6117;SDS011;3089;48.202;11.510;2024-02-21T10:52:13;2.47;;;0.70;;
6117;SDS011;3089;48.202;11.510;2024-02-21T10:54:45;2.13;;;0.60;;
6117;SDS011;3089;48.202;11.510;2024-02-21T10:57:16;2.03;;;0.50;;
6117;SDS011;3089;48.202;11.510;2024-02-21T10:59:46;4.83;;;0.60;;
6117;SDS011;3089;48.202;11.510;2024-02-21T11:02:16;2.40;;;0.63;;
6117;SDS011;3089;48.202;11.510;2024-02-21T11:04:45;2.60;;;0.70;;
6117;SDS011;3089;48.202;11.510;2024-02-21T11:07:15;4.10;;;0.73;;
6117;SDS011;3089;48.202;11.510;2024-02-21T11:09:50;2.03;;;0.70;;
6117;SDS011;3089;48.202;11.510;2024-02-21T11:12:21;2.50;;;0.60;;
6117;SDS011;3089;48.202;11.510;2024-02-21T11:14:50;3.50;;;0.70;;
6117;SDS011;3089;48.202;11.510;2024-02-21T11:17:19;2.40;;;0.70;;
6117;SDS011;3089;48.202;11.510;2024-02-21T11:19:50;3.27;;;0.60;;
6117;SDS011;3089;48.202;11.510;2024-02-21T11:22:20;2.07;;;0.60;;
6117;SDS011;3089;48.202;11.510;2024-02-21T11:24:49;2.40;;;0.70;;
6117;SDS011;3089;48.202;11.510;2024-02-21T11:27:18;3.20;;;1.00;;
6117;SDS011;3089;48.202;11.510;2024-02-21T11:29:48;2.77;;;0.87;;
6117;SDS011;3089;48.202;11.510;2024-02-21T11:32:18;12.10;;;0.90;;
6117;SDS011;3089;48.202;11.510;2024-02-21T11:34:54;1.93;;;0.57;;
6117;SDS011;3089;48.202;11.510;2024-02-21T11:37:25;12.27;;;0.80;;
6117;SDS011;3089;48.202;11.510;2024-02-21T11:39:54;16.23;;;1.07;;
6117;SDS011;3089;48.202;11.510;2024-02-21T11:42:22;4.27;;;0.60;;
6117;SDS011;3089;48.202;11.510;2024-02-21T11:44:52;5.13;;;0.93;;
6117;SDS011;3089;48.202;11.510;2024-02-21T11:47:23;5.47;;;0.60;;
6117;SDS011;3089;48.202;11.510;2024-02-21T11:49:51;2.10;;;0.60;;
6117;SDS011;3089;48.202;11.510;2024-02-21T11:52:21;3.17;;;0.70;;
6117;SDS011;3089;48.202;11.510;2024-02-21T11:54:52;3.47;;;0.73;;
6117;SDS011;3089;48.202;11.510;2024-02-21T11:57:23;2.07;;;0.57;;
6117;SDS011;3089;48.202;11.510;2024-02-21T11:59:51;2.47;;;0.60;;
6117;SDS011;3089;48.202;11.510;2024-02-21T12:02:25;2.10;;;0.60;;
6117;SDS011;3089;48.202;11.510;2024-02-21T12:04:53;1.97;;;0.60;;
6117;SDS011;3089;48.202;11.510;2024-02-21T12:07:22;4.60;;;0.57;;
6117;SDS011;3089;48.202;11.510;2024-02-21T12:09:50;3.30;;;0.70;;
6117;SDS011;3089;48.202;11.510;2024-02-21T12:12:20;4.57;;;0.80;;
6117;SDS011;3089;48.202;11.510;2024-02-21T12:14:53;6.17;;;1.00;;
6117;SDS011;3089;48.202;11.510;2024-02-21T12:17:24;6.00;;;0.90;;
6117;SDS011;3089;48.202;11.510;2024-02-21T12:19:52;4.10;;;0.80;;
6117;SDS011;3089;48.202;11.510;2024-02-21T12:22:20;2.10;;;0.60;;
6117;SDS011;3089;48.202;11.510;2024-02-21T12:24:48;2.00;;;0.60;;
6117;SDS011;3089;48.202;11.510;2024-02-21T12:27:17;3.20;;;0.67;;
6117;SDS011;3089;48.202;11.510;2024-02-21T12:29:46;2.10;;;0.60;;
6117;SDS011;3089;48.202;11.510;2024-02-21T12:32:14;4.47;;;0.70;;
6117;SDS011;3089;48.202;11.510;2024-02-21T12:34:42;3.37;;;0.70;;
6117;SDS011;3089;48.202;11.510;2024-02-21T12:37:19;2.20;;;0.60;;
6117;SDS011;3089;48.202;11.510;2024-02-21T12:39:49;2.07;;;0.70;;
6117;SDS011;3089;48.202;11.510;2024-02-21T12:42:18;2.90;;;0.60;;
6117;SDS011;3089;48.202;11.510;2024-02-21T12:44:46;2.50;;;0.60;;
6117;SDS011;3089;48.202;11.510;2024-02-21T12:47:14;3.70;;;0.70;;
6117;SDS011;3089;48.202;11.510;2024-02-21T12:49:45;1.93;;;0.60;;
6117;SDS011;3089;48.202;11.510;2024-02-21T12:52:13;3.70;;;0.70;;
6117;SDS011;3089;48.202;11.510;2024-02-21T12:54:41;2.20;;;0.53;;
6117;SDS011;3089;48.202;11.510;2024-02-21T12:57:09;4.67;;;0.80;;
6117;SDS011;3089;48.202;11.510;2024-02-21T12:59:39;3.63;;;0.80;;
6117;SDS011;3089;48.202;11.510;2024-02-21T13:02:07;3.40;;;0.70;;
6117;SDS011;3089;48.202;11.510;2024-02-21T13:04:36;2.20;;;0.70;;
6117;SDS011;3089;48.202;11.510;2024-02-21T13:07:08;3.60;;;0.70;;
6117;SDS011;3089;48.202;11.510;2024-02-21T13:09:36;2.17;;;0.60;;
6117;SDS011;3089;48.202;11.510;2024-02-21T13:12:04;3.73;;;0.60;;
6117;SDS011;3089;48.202;11.510;2024-02-21T13:14:33;2.30;;;0.60;;
6117;SDS011;3089;48.202;11.510;2024-02-21T13:17:02;4.37;;;1.17;;
6117;SDS011;3089;48.202;11.510;2024-02-21T13:19:31;2.00;;;0.60;;
6117;SDS011;3089;48.202;11.510;2024-02-21T13:21:59;2.90;;;0.70;;
6117;SDS011;3089;48.202;11.510;2024-02-21T13:24:29;1.80;;;0.50;;
6117;SDS011;3089;48.202;11.510;2024-02-21T13:26:57;1.80;;;0.50;;
6117;SDS011;3089;48.202;11.510;2024-02-21T13:29:25;2.00;;;0.60;;
6117;SDS011;3089;48.202;11.510;2024-02-21T13:31:53;2.87;;;0.70;;
6117;SDS011;3089;48.202;11.510;2024-02-21T13:34:22;2.60;;;1.00;;
6117;SDS011;3089;48.202;11.510;2024-02-21T13:36:51;2.50;;;0.70;;
6117;SDS011;3089;48.202;11.510;2024-02-21T13:39:19;2.50;;;0.60;;
6117;SDS011;3089;48.202;11.510;2024-02-21T13:41:47;4.03;;;0.80;;
6117;SDS011;3089;48.202;11.510;2024-02-21T13:44:15;2.50;;;0.67;;
6117;SDS011;3089;48.202;11.510;2024-02-21T13:46:43;4.97;;;0.70;;
6117;SDS011;3089;48.202;11.510;2024-02-21T13:49:12;5.13;;;0.60;;
6117;SDS011;3089;48.202;11.510;2024-02-21T13:51:41;2.53;;;0.70;;
6117;SDS011;3089;48.202;11.510;2024-02-21T13:54:11;2.30;;;0.80;;
6117;SDS011;3089;48.202;11.510;2024-02-21T13:56:42;2.10;;;0.60;;
6117;SDS011;3089;48.202;11.510;2024-02-21T13:59:11;3.43;;;0.70;;
6117;SDS011;3089;48.202;11.510;2024-02-21T14:01:40;2.30;;;0.63;;
6117;SDS011;3089;48.202;11.510;2024-02-21T14:04:09;5.97;;;0.70;;
6117;SDS011;3089;48.202;11.510;2024-02-21T14:06:38;3.50;;;0.50;;
6117;SDS011;3089;48.202;11.510;2024-02-21T14:09:10;2.50;;;0.67;;
6117;SDS011;3089;48.202;11.510;2024-02-21T14:11:39;2.07;;;0.60;;
6117;SDS011;3089;48.202;11.510;2024-02-21T14:14:08;2.43;;;0.90;;
6117;SDS011;3089;48.202;11.510;2024-02-21T14:16:36;4.10;;;0.80;;
6117;SDS011;3089;48.202;11.510;2024-02-21T14:19:04;4.10;;;0.80;;
6117;SDS011;3089;48.202;11.510;2024-02-21T14:21:33;3.90;;;0.80;;
6117;SDS011;3089;48.202;11.510;2024-02-21T14:24:03;10.03;;;0.93;;
6117;SDS011;3089;48.202;11.510;2024-02-21T14:26:33;7.43;;;1.03;;
6117;SDS011;3089;48.202;11.510;2024-02-21T14:29:02;11.63;;;0.90;;
6117;SDS011;3089;48.202;11.510;2024-02-21T14:31:31;4.47;;;0.93;;
6117;SDS011;3089;48.202;11.510;2024-02-21T14:33:59;5.13;;;0.73;;
6117;SDS011;3089;48.202;11.510;2024-02-21T14:36:28;8.43;;;1.00;;
6117;SDS011;3089;48.202;11.510;2024-02-21T14:38:56;3.33;;;0.60;;
6117;SDS011;3089;48.202;11.510;2024-02-21T14:41:25;4.22;;;0.90;;
6117;SDS011;3089;48.202;11.510;2024-02-21T14:43:55;5.40;;;1.00;;
6117;SDS011;3089;48.202;11.510;2024-02-21T14:46:29;3.63;;;0.80;;
6117;SDS011;3089;48.202;11.510;2024-02-21T14:48:57;3.50;;;0.60;;
6117;SDS011;3089;48.202;11.510;2024-02-21T14:51:25;2.37;;;0.70;;
6117;SDS011;3089;48.202;11.510;2024-02-21T14:53:53;3.10;;;0.70;;
6117;SDS011;3089;48.202;11.510;2024-02-21T14:56:21;2.93;;;1.00;;
6117;SDS011;3089;48.202;11.510;2024-02-21T14:58:50;2.27;;;0.60;;
6117;SDS011;3089;48.202;11.510;2024-02-21T15:01:24;4.97;;;0.70;;
6117;SDS011;3089;48.202;11.510;2024-02-21T15:03:52;2.37;;;0.90;;
6117;SDS011;3089;48.202;11.510;2024-02-21T15:06:20;2.47;;;0.60;;
6117;SDS011;3089;48.202;11.510;2024-02-21T15:08:48;6.47;;;1.00;;
6117;SDS011;3089;48.202;11.510;2024-02-21T15:11:18;2.30;;;0.50;;